sensor_id;sensor_type;location;lat;lon;timestamp;temperature;humidity
25046;DHT22;13044;49.304;12.840;2024-01-27T00:04:17;4.80;99.90
25046;DHT22;13044;49.304;12.840;2024-01-27T00:06:44;4.80;99.90
25046;DHT22;13044;49.304;12.840;2024-01-27T00:09:11;4.80;99.90
25046;DHT22;13044;49.304;12.840;2024-01-27T00:11:38;4.70;99.90
25046;DHT22;13044;49.304;12.840;2024-01-27T00:14:05;4.60;99.90
25046;DHT22;13044;49.304;12.840;2024-01-27T00:16:32;4.60;99.90
25046;DHT22;13044;49.304;12.840;2024-01-27T00:18:59;4.60;99.90
25046;DHT22;13044;49.304;12.840;2024-01-27T00:21:26;4.60;99.90
25046;DHT22;13044;49.304;12.840;2024-01-27T00:23:53;4.60;99.90
25046;DHT22;13044;49.304;12.840;2024-01-27T00:26:20;4.60;99.90
25046;DHT22;13044;49.304;12.840;2024-01-27T00:28:47;4.60;99.90
25046;DHT22;13044;49.304;12.840;2024-01-27T00:31:14;4.60;99.90
25046;DHT22;13044;49.304;12.840;2024-01-27T00:33:41;4.50;99.90
25046;DHT22;13044;49.304;12.840;2024-01-27T00:36:08;4.50;99.90
25046;DHT22;13044;49.304;12.840;2024-01-27T00:38:35;4.50;99.90
25046;DHT22;13044;49.304;12.840;2024-01-27T00:41:02;4.50;99.90
25046;DHT22;13044;49.304;12.840;2024-01-27T00:43:29;4.40;99.90
25046;DHT22;13044;49.304;12.840;2024-01-27T00:45:56;4.40;99.90
25046;DHT22;13044;49.304;12.840;2024-01-27T00:48:23;4.40;99.90
25046;DHT22;13044;49.304;12.840;2024-01-27T00:50:50;4.40;99.90
25046;DHT22;13044;49.304;12.840;2024-01-27T00:53:17;4.40;99.90
25046;DHT22;13044;49.304;12.840;2024-01-27T00:55:44;4.30;99.90
25046;DHT22;13044;49.304;12.840;2024-01-27T00:58:10;4.30;99.90
25046;DHT22;13044;49.304;12.840;2024-01-27T01:00:37;4.30;99.90
25046;DHT22;13044;49.304;12.840;2024-01-27T01:03:04;4.30;99.90
25046;DHT22;13044;49.304;12.840;2024-01-27T01:05:31;4.30;99.90
25046;DHT22;13044;49.304;12.840;2024-01-27T01:07:59;4.30;99.90
25046;DHT22;13044;49.304;12.840;2024-01-27T01:10:26;4.30;99.90
25046;DHT22;13044;49.304;12.840;2024-01-27T01:12:53;4.30;99.90
25046;DHT22;13044;49.304;12.840;2024-01-27T01:15:20;4.30;99.90
25046;DHT22;13044;49.304;12.840;2024-01-27T01:17:47;4.30;99.90
25046;DHT22;13044;49.304;12.840;2024-01-27T01:20:14;4.30;99.90
25046;DHT22;13044;49.304;12.840;2024-01-27T01:22:41;4.20;99.90
25046;DHT22;13044;49.304;12.840;2024-01-27T01:25:08;4.20;99.90
25046;DHT22;13044;49.304;12.840;2024-01-27T01:27:35;4.20;99.90
25046;DHT22;13044;49.304;12.840;2024-01-27T01:30:02;4.20;99.90
25046;DHT22;13044;49.304;12.840;2024-01-27T01:32:30;4.10;99.90
25046;DHT22;13044;49.304;12.840;2024-01-27T01:34:56;4.10;99.90
25046;DHT22;13044;49.304;12.840;2024-01-27T01:37:23;4.20;99.90
25046;DHT22;13044;49.304;12.840;2024-01-27T01:39:50;4.20;99.90
25046;DHT22;13044;49.304;12.840;2024-01-27T01:42:17;4.10;99.90
25046;DHT22;13044;49.304;12.840;2024-01-27T01:44:44;4.10;99.90
25046;DHT22;13044;49.304;12.840;2024-01-27T01:47:12;4.10;99.90
25046;DHT22;13044;49.304;12.840;2024-01-27T01:49:38;3.90;99.90
25046;DHT22;13044;49.304;12.840;2024-01-27T01:52:06;3.90;99.90
25046;DHT22;13044;49.304;12.840;2024-01-27T01:54:34;3.90;99.90
25046;DHT22;13044;49.304;12.840;2024-01-27T01:57:02;3.90;99.90
25046;DHT22;13044;49.304;12.840;2024-01-27T01:59:30;3.90;99.90
25046;DHT22;13044;49.304;12.840;2024-01-27T02:01:57;3.90;99.90
25046;DHT22;13044;49.304;12.840;2024-01-27T02:04:23;3.80;99.90
25046;DHT22;13044;49.304;12.840;2024-01-27T02:06:50;3.80;99.90
25046;DHT22;13044;49.304;12.840;2024-01-27T02:09:17;3.80;99.90
25046;DHT22;13044;49.304;12.840;2024-01-27T02:11:44;3.80;99.90
25046;DHT22;13044;49.304;12.840;2024-01-27T02:14:11;3.80;99.90
25046;DHT22;13044;49.304;12.840;2024-01-27T02:16:39;3.80;99.90
25046;DHT22;13044;49.304;12.840;2024-01-27T02:19:06;3.70;99.90
25046;DHT22;13044;49.304;12.840;2024-01-27T02:21:33;3.80;99.90
25046;DHT22;13044;49.304;12.840;2024-01-27T02:24:00;3.70;99.90
25046;DHT22;13044;49.304;12.840;2024-01-27T02:26:27;3.70;99.90
25046;DHT22;13044;49.304;12.840;2024-01-27T02:28:54;3.70;99.90
25046;DHT22;13044;49.304;12.840;2024-01-27T02:31:21;3.70;99.90
25046;DHT22;13044;49.304;12.840;2024-01-27T02:33:48;3.70;99.90
25046;DHT22;13044;49.304;12.840;2024-01-27T02:36:15;3.70;99.90
25046;DHT22;13044;49.304;12.840;2024-01-27T02:38:42;3.70;99.90
25046;DHT22;13044;49.304;12.840;2024-01-27T02:41:12;3.70;99.90
25046;DHT22;13044;49.304;12.840;2024-01-27T02:43:39;3.70;99.90
25046;DHT22;13044;49.304;12.840;2024-01-27T02:46:10;3.70;99.90
25046;DHT22;13044;49.304;12.840;2024-01-27T02:48:44;3.70;99.90
25046;DHT22;13044;49.304;12.840;2024-01-27T02:51:12;3.70;99.90
25046;DHT22;13044;49.304;12.840;2024-01-27T02:53:39;3.60;99.90
25046;DHT22;13044;49.304;12.840;2024-01-27T02:56:07;3.60;99.90
25046;DHT22;13044;49.304;12.840;2024-01-27T02:58:36;3.60;99.90
25046;DHT22;13044;49.304;12.840;2024-01-27T03:01:03;3.60;99.90
25046;DHT22;13044;49.304;12.840;2024-01-27T03:03:30;3.60;99.90
25046;DHT22;13044;49.304;12.840;2024-01-27T03:05:58;3.60;99.90
25046;DHT22;13044;49.304;12.840;2024-01-27T03:08:26;3.50;99.90
25046;DHT22;13044;49.304;12.840;2024-01-27T03:10:53;3.60;99.90
25046;DHT22;13044;49.304;12.840;2024-01-27T03:13:20;3.60;99.90
25046;DHT22;13044;49.304;12.840;2024-01-27T03:15:47;3.50;99.90
25046;DHT22;13044;49.304;12.840;2024-01-27T03:18:15;3.50;99.90
25046;DHT22;13044;49.304;12.840;2024-01-27T03:20:43;3.50;99.90
25046;DHT22;13044;49.304;12.840;2024-01-27T03:23:10;3.50;99.90
25046;DHT22;13044;49.304;12.840;2024-01-27T03:25:37;3.50;99.90
25046;DHT22;13044;49.304;12.840;2024-01-27T03:28:04;3.50;99.90
25046;DHT22;13044;49.304;12.840;2024-01-27T03:30:31;3.50;99.90
25046;DHT22;13044;49.304;12.840;2024-01-27T03:32:58;3.40;99.90
25046;DHT22;13044;49.304;12.840;2024-01-27T03:35:25;3.40;99.90
25046;DHT22;13044;49.304;12.840;2024-01-27T03:37:52;3.40;99.90
25046;DHT22;13044;49.304;12.840;2024-01-27T03:40:19;3.30;99.90
25046;DHT22;13044;49.304;12.840;2024-01-27T03:42:45;3.40;99.90
25046;DHT22;13044;49.304;12.840;2024-01-27T03:45:12;3.30;99.90
25046;DHT22;13044;49.304;12.840;2024-01-27T03:47:39;3.30;99.90
25046;DHT22;13044;49.304;12.840;2024-01-27T03:50:07;3.20;99.90
25046;DHT22;13044;49.304;12.840;2024-01-27T03:52:34;3.20;99.90
25046;DHT22;13044;49.304;12.840;2024-01-27T03:55:02;3.20;99.90
25046;DHT22;13044;49.304;12.840;2024-01-27T03:57:29;3.20;99.90
25046;DHT22;13044;49.304;12.840;2024-01-27T03:59:56;3.20;99.90
25046;DHT22;13044;49.304;12.840;2024-01-27T04:02:23;3.20;99.90
25046;DHT22;13044;49.304;12.840;2024-01-27T04:04:49;3.20;99.90
25046;DHT22;13044;49.304;12.840;2024-01-27T04:07:16;3.20;99.90
25046;DHT22;13044;49.304;12.840;2024-01-27T04:09:43;3.20;99.90
25046;DHT22;13044;49.304;12.840;2024-01-27T04:12:10;3.20;99.90
25046;DHT22;13044;49.304;12.840;2024-01-27T04:14:37;3.20;99.90
25046;DHT22;13044;49.304;12.840;2024-01-27T04:17:04;3.20;99.90
25046;DHT22;13044;49.304;12.840;2024-01-27T04:19:31;3.20;99.90
25046;DHT22;13044;49.304;12.840;2024-01-27T04:21:58;3.20;99.90
25046;DHT22;13044;49.304;12.840;2024-01-27T04:24:25;3.20;99.90
25046;DHT22;13044;49.304;12.840;2024-01-27T04:26:52;3.20;99.90
25046;DHT22;13044;49.304;12.840;2024-01-27T04:29:19;3.20;99.90
25046;DHT22;13044;49.304;12.840;2024-01-27T04:31:46;3.20;99.90
25046;DHT22;13044;49.304;12.840;2024-01-27T04:34:13;3.20;99.90
25046;DHT22;13044;49.304;12.840;2024-01-27T04:36:40;3.20;99.90
25046;DHT22;13044;49.304;12.840;2024-01-27T04:39:07;3.20;99.90
25046;DHT22;13044;49.304;12.840;2024-01-27T04:41:34;3.20;99.90
25046;DHT22;13044;49.304;12.840;2024-01-27T04:44:01;3.20;99.90
25046;DHT22;13044;49.304;12.840;2024-01-27T04:46:28;3.20;99.90
25046;DHT22;13044;49.304;12.840;2024-01-27T04:48:55;3.20;99.90
25046;DHT22;13044;49.304;12.840;2024-01-27T04:51:22;3.20;99.90
25046;DHT22;13044;49.304;12.840;2024-01-27T04:53:50;3.10;99.90
25046;DHT22;13044;49.304;12.840;2024-01-27T04:56:17;3.10;99.90
25046;DHT22;13044;49.304;12.840;2024-01-27T04:58:44;3.10;99.90
25046;DHT22;13044;49.304;12.840;2024-01-27T05:01:11;3.10;99.90
25046;DHT22;13044;49.304;12.840;2024-01-27T05:03:37;3.10;99.90
25046;DHT22;13044;49.304;12.840;2024-01-27T05:06:07;3.10;99.90
25046;DHT22;13044;49.304;12.840;2024-01-27T05:08:36;3.10;99.90
25046;DHT22;13044;49.304;12.840;2024-01-27T05:11:04;3.10;99.90
25046;DHT22;13044;49.304;12.840;2024-01-27T05:13:30;3.10;99.90
25046;DHT22;13044;49.304;12.840;2024-01-27T05:15:57;3.10;99.90
25046;DHT22;13044;49.304;12.840;2024-01-27T05:18:24;3.10;99.90
25046;DHT22;13044;49.304;12.840;2024-01-27T05:20:51;3.10;99.90
25046;DHT22;13044;49.304;12.840;2024-01-27T05:23:18;3.10;99.90
25046;DHT22;13044;49.304;12.840;2024-01-27T05:25:45;3.10;99.90
25046;DHT22;13044;49.304;12.840;2024-01-27T05:28:12;3.10;99.90
25046;DHT22;13044;49.304;12.840;2024-01-27T05:30:39;3.00;99.90
25046;DHT22;13044;49.304;12.840;2024-01-27T05:33:06;3.00;99.90
25046;DHT22;13044;49.304;12.840;2024-01-27T05:35:33;2.90;99.90
25046;DHT22;13044;49.304;12.840;2024-01-27T05:38:00;3.00;99.90
25046;DHT22;13044;49.304;12.840;2024-01-27T05:40:27;3.00;99.90
25046;DHT22;13044;49.304;12.840;2024-01-27T05:42:55;2.90;99.90
25046;DHT22;13044;49.304;12.840;2024-01-27T05:45:22;2.90;99.90
25046;DHT22;13044;49.304;12.840;2024-01-27T05:47:49;2.90;99.90
25046;DHT22;13044;49.304;12.840;2024-01-27T05:50:17;2.80;99.90
25046;DHT22;13044;49.304;12.840;2024-01-27T05:52:44;2.80;99.90
25046;DHT22;13044;49.304;12.840;2024-01-27T05:55:11;2.80;99.90
25046;DHT22;13044;49.304;12.840;2024-01-27T05:57:39;2.80;99.90
25046;DHT22;13044;49.304;12.840;2024-01-27T06:00:06;2.80;99.90
25046;DHT22;13044;49.304;12.840;2024-01-27T06:02:36;2.80;99.90
25046;DHT22;13044;49.304;12.840;2024-01-27T06:05:04;2.80;99.90
25046;DHT22;13044;49.304;12.840;2024-01-27T06:07:31;2.80;99.90
25046;DHT22;13044;49.304;12.840;2024-01-27T06:09:58;2.80;99.90
25046;DHT22;13044;49.304;12.840;2024-01-27T06:12:25;2.80;99.90
25046;DHT22;13044;49.304;12.840;2024-01-27T06:14:51;2.80;99.90
25046;DHT22;13044;49.304;12.840;2024-01-27T06:17:18;2.80;99.90
25046;DHT22;13044;49.304;12.840;2024-01-27T06:19:45;2.80;99.90
25046;DHT22;13044;49.304;12.840;2024-01-27T06:22:12;2.80;99.90
25046;DHT22;13044;49.304;12.840;2024-01-27T06:24:43;2.80;99.90
25046;DHT22;13044;49.304;12.840;2024-01-27T06:27:11;2.80;99.90
25046;DHT22;13044;49.304;12.840;2024-01-27T06:29:38;2.80;99.90
25046;DHT22;13044;49.304;12.840;2024-01-27T06:32:07;2.80;99.90
25046;DHT22;13044;49.304;12.840;2024-01-27T06:34:38;2.80;99.90
25046;DHT22;13044;49.304;12.840;2024-01-27T06:37:05;2.70;99.90
25046;DHT22;13044;49.304;12.840;2024-01-27T06:39:32;2.70;99.90
25046;DHT22;13044;49.304;12.840;2024-01-27T06:41:59;2.60;99.90
25046;DHT22;13044;49.304;12.840;2024-01-27T06:44:26;2.60;99.90
25046;DHT22;13044;49.304;12.840;2024-01-27T06:46:53;2.60;99.90
25046;DHT22;13044;49.304;12.840;2024-01-27T06:49:20;2.50;99.90
25046;DHT22;13044;49.304;12.840;2024-01-27T06:51:47;2.50;99.90
25046;DHT22;13044;49.304;12.840;2024-01-27T06:54:14;2.50;99.90
25046;DHT22;13044;49.304;12.840;2024-01-27T06:56:41;2.50;99.90
25046;DHT22;13044;49.304;12.840;2024-01-27T06:59:08;2.40;99.90
25046;DHT22;13044;49.304;12.840;2024-01-27T07:01:35;2.40;99.90
25046;DHT22;13044;49.304;12.840;2024-01-27T07:04:02;2.40;99.90
25046;DHT22;13044;49.304;12.840;2024-01-27T07:06:29;2.40;99.90
25046;DHT22;13044;49.304;12.840;2024-01-27T07:08:56;2.40;99.90
25046;DHT22;13044;49.304;12.840;2024-01-27T07:11:23;2.40;99.90
25046;DHT22;13044;49.304;12.840;2024-01-27T07:13:50;2.30;99.90
25046;DHT22;13044;49.304;12.840;2024-01-27T07:16:16;2.30;99.90
25046;DHT22;13044;49.304;12.840;2024-01-27T07:18:43;2.20;99.90
25046;DHT22;13044;49.304;12.840;2024-01-27T07:21:15;2.20;99.90
25046;DHT22;13044;49.304;12.840;2024-01-27T07:23:46;2.20;99.90
25046;DHT22;13044;49.304;12.840;2024-01-27T07:26:13;2.10;99.90
25046;DHT22;13044;49.304;12.840;2024-01-27T07:28:40;2.10;99.90
25046;DHT22;13044;49.304;12.840;2024-01-27T07:31:07;2.10;99.90
25046;DHT22;13044;49.304;12.840;2024-01-27T07:33:34;2.10;99.90
25046;DHT22;13044;49.304;12.840;2024-01-27T07:36:01;2.10;99.90
25046;DHT22;13044;49.304;12.840;2024-01-27T07:38:28;2.10;99.90
25046;DHT22;13044;49.304;12.840;2024-01-27T07:40:55;2.10;99.90
25046;DHT22;13044;49.304;12.840;2024-01-27T07:43:25;2.10;99.90
25046;DHT22;13044;49.304;12.840;2024-01-27T07:45:52;2.10;99.90
25046;DHT22;13044;49.304;12.840;2024-01-27T07:48:20;2.20;99.90
25046;DHT22;13044;49.304;12.840;2024-01-27T07:50:47;2.20;99.90
25046;DHT22;13044;49.304;12.840;2024-01-27T07:53:16;2.30;99.90
25046;DHT22;13044;49.304;12.840;2024-01-27T07:55:43;2.30;99.90
25046;DHT22;13044;49.304;12.840;2024-01-27T07:58:10;2.40;99.90
25046;DHT22;13044;49.304;12.840;2024-01-27T08:00:37;2.50;99.90
25046;DHT22;13044;49.304;12.840;2024-01-27T08:03:04;2.60;99.90
25046;DHT22;13044;49.304;12.840;2024-01-27T08:05:31;2.70;99.90
25046;DHT22;13044;49.304;12.840;2024-01-27T08:07:58;2.70;99.90
25046;DHT22;13044;49.304;12.840;2024-01-27T08:10:25;2.70;99.90
25046;DHT22;13044;49.304;12.840;2024-01-27T08:12:55;2.80;99.90
25046;DHT22;13044;49.304;12.840;2024-01-27T08:15:22;2.90;99.90
25046;DHT22;13044;49.304;12.840;2024-01-27T08:17:49;3.00;99.90
25046;DHT22;13044;49.304;12.840;2024-01-27T08:20:17;3.10;99.90
25046;DHT22;13044;49.304;12.840;2024-01-27T08:22:44;3.20;99.90
25046;DHT22;13044;49.304;12.840;2024-01-27T08:25:11;3.30;99.90
25046;DHT22;13044;49.304;12.840;2024-01-27T08:27:38;3.30;99.90
25046;DHT22;13044;49.304;12.840;2024-01-27T08:30:05;3.30;99.90
25046;DHT22;13044;49.304;12.840;2024-01-27T08:32:34;3.40;99.90
25046;DHT22;13044;49.304;12.840;2024-01-27T08:35:02;3.30;99.90
25046;DHT22;13044;49.304;12.840;2024-01-27T08:37:29;3.40;99.90
25046;DHT22;13044;49.304;12.840;2024-01-27T08:39:56;3.50;99.90
25046;DHT22;13044;49.304;12.840;2024-01-27T08:42:23;3.50;99.90
25046;DHT22;13044;49.304;12.840;2024-01-27T08:44:50;3.60;99.90
25046;DHT22;13044;49.304;12.840;2024-01-27T08:47:17;3.70;99.90
25046;DHT22;13044;49.304;12.840;2024-01-27T08:49:44;3.90;99.90
25046;DHT22;13044;49.304;12.840;2024-01-27T08:52:11;4.00;99.90
25046;DHT22;13044;49.304;12.840;2024-01-27T08:54:37;4.10;99.90
25046;DHT22;13044;49.304;12.840;2024-01-27T08:57:05;4.20;99.90
25046;DHT22;13044;49.304;12.840;2024-01-27T08:59:32;4.40;99.90
25046;DHT22;13044;49.304;12.840;2024-01-27T09:01:59;4.50;99.90
25046;DHT22;13044;49.304;12.840;2024-01-27T09:04:26;4.60;99.90
25046;DHT22;13044;49.304;12.840;2024-01-27T09:06:53;4.50;99.90
25046;DHT22;13044;49.304;12.840;2024-01-27T09:09:20;4.50;99.90
25046;DHT22;13044;49.304;12.840;2024-01-27T09:11:47;4.50;99.90
25046;DHT22;13044;49.304;12.840;2024-01-27T09:14:15;4.70;99.90
25046;DHT22;13044;49.304;12.840;2024-01-27T09:16:42;4.70;99.90
25046;DHT22;13044;49.304;12.840;2024-01-27T09:19:09;4.80;99.90
25046;DHT22;13044;49.304;12.840;2024-01-27T09:21:36;5.00;99.90
25046;DHT22;13044;49.304;12.840;2024-01-27T09:24:04;5.10;99.90
25046;DHT22;13044;49.304;12.840;2024-01-27T09:26:32;5.20;99.90
25046;DHT22;13044;49.304;12.840;2024-01-27T09:28:58;5.20;99.90
25046;DHT22;13044;49.304;12.840;2024-01-27T09:31:26;5.30;99.90
25046;DHT22;13044;49.304;12.840;2024-01-27T09:33:53;5.30;99.90
25046;DHT22;13044;49.304;12.840;2024-01-27T09:36:21;5.50;99.90
25046;DHT22;13044;49.304;12.840;2024-01-27T09:38:48;5.60;99.90
25046;DHT22;13044;49.304;12.840;2024-01-27T09:41:16;5.80;99.90
25046;DHT22;13044;49.304;12.840;2024-01-27T09:43:44;6.00;99.90
25046;DHT22;13044;49.304;12.840;2024-01-27T09:46:15;6.20;99.90
25046;DHT22;13044;49.304;12.840;2024-01-27T09:48:44;6.20;99.90
25046;DHT22;13044;49.304;12.840;2024-01-27T09:51:11;6.20;99.90
25046;DHT22;13044;49.304;12.840;2024-01-27T09:53:39;6.30;99.90
25046;DHT22;13044;49.304;12.840;2024-01-27T09:56:06;6.30;99.90
25046;DHT22;13044;49.304;12.840;2024-01-27T09:58:33;6.50;99.90
25046;DHT22;13044;49.304;12.840;2024-01-27T10:01:01;6.70;99.90
25046;DHT22;13044;49.304;12.840;2024-01-27T10:03:30;6.80;99.90
25046;DHT22;13044;49.304;12.840;2024-01-27T10:05:57;6.90;99.90
25046;DHT22;13044;49.304;12.840;2024-01-27T10:08:25;6.80;99.90
25046;DHT22;13044;49.304;12.840;2024-01-27T10:10:56;7.00;99.90
25046;DHT22;13044;49.304;12.840;2024-01-27T10:13:23;7.10;99.90
25046;DHT22;13044;49.304;12.840;2024-01-27T10:16:07;7.30;99.90
25046;DHT22;13044;49.304;12.840;2024-01-27T10:18:35;7.40;99.90
25046;DHT22;13044;49.304;12.840;2024-01-27T10:21:16;7.40;99.90
25046;DHT22;13044;49.304;12.840;2024-01-27T10:23:45;7.30;99.90
25046;DHT22;13044;49.304;12.840;2024-01-27T10:26:11;7.20;99.90
25046;DHT22;13044;49.304;12.840;2024-01-27T10:28:38;7.00;99.90
25046;DHT22;13044;49.304;12.840;2024-01-27T10:31:10;7.00;99.90
25046;DHT22;13044;49.304;12.840;2024-01-27T10:33:38;7.00;99.90
25046;DHT22;13044;49.304;12.840;2024-01-27T10:36:07;7.20;99.90
25046;DHT22;13044;49.304;12.840;2024-01-27T10:38:38;7.40;99.90
25046;DHT22;13044;49.304;12.840;2024-01-27T10:41:09;7.70;99.90
25046;DHT22;13044;49.304;12.840;2024-01-27T10:43:38;7.90;99.90
25046;DHT22;13044;49.304;12.840;2024-01-27T10:46:08;8.10;99.90
25046;DHT22;13044;49.304;12.840;2024-01-27T10:48:36;8.10;99.90
25046;DHT22;13044;49.304;12.840;2024-01-27T10:51:07;8.10;99.90
25046;DHT22;13044;49.304;12.840;2024-01-27T10:53:36;8.20;99.90
25046;DHT22;13044;49.304;12.840;2024-01-27T10:56:04;7.80;99.90
25046;DHT22;13044;49.304;12.840;2024-01-27T10:58:36;7.80;99.90
25046;DHT22;13044;49.304;12.840;2024-01-27T11:01:11;8.00;99.90
25046;DHT22;13044;49.304;12.840;2024-01-27T11:03:39;8.10;99.90
25046;DHT22;13044;49.304;12.840;2024-01-27T11:06:08;8.10;99.90
25046;DHT22;13044;49.304;12.840;2024-01-27T11:08:35;8.20;99.90
25046;DHT22;13044;49.304;12.840;2024-01-27T11:11:08;8.30;99.90
25046;DHT22;13044;49.304;12.840;2024-01-27T11:13:36;8.30;99.90
25046;DHT22;13044;49.304;12.840;2024-01-27T11:16:03;8.40;99.90
25046;DHT22;13044;49.304;12.840;2024-01-27T11:18:32;8.30;99.90
25046;DHT22;13044;49.304;12.840;2024-01-27T11:20:59;8.30;99.90
25046;DHT22;13044;49.304;12.840;2024-01-27T11:23:34;8.50;99.90
25046;DHT22;13044;49.304;12.840;2024-01-27T11:26:06;8.60;99.90
25046;DHT22;13044;49.304;12.840;2024-01-27T11:28:35;8.70;99.90
25046;DHT22;13044;49.304;12.840;2024-01-27T11:31:06;8.80;99.90
25046;DHT22;13044;49.304;12.840;2024-01-27T11:33:41;8.80;99.90
25046;DHT22;13044;49.304;12.840;2024-01-27T11:36:19;8.70;99.90
25046;DHT22;13044;49.304;12.840;2024-01-27T11:38:53;8.70;99.90
25046;DHT22;13044;49.304;12.840;2024-01-27T11:41:28;8.80;99.90
25046;DHT22;13044;49.304;12.840;2024-01-27T11:43:57;8.90;99.90
25046;DHT22;13044;49.304;12.840;2024-01-27T11:46:28;9.00;99.90
25046;DHT22;13044;49.304;12.840;2024-01-27T11:48:55;9.00;99.90
25046;DHT22;13044;49.304;12.840;2024-01-27T11:51:22;9.00;99.90
25046;DHT22;13044;49.304;12.840;2024-01-27T11:53:51;9.10;99.90
25046;DHT22;13044;49.304;12.840;2024-01-27T11:56:18;9.20;99.90
25046;DHT22;13044;49.304;12.840;2024-01-27T11:58:49;9.10;99.90
25046;DHT22;13044;49.304;12.840;2024-01-27T12:01:17;9.20;99.90
25046;DHT22;13044;49.304;12.840;2024-01-27T12:03:44;9.20;99.90
25046;DHT22;13044;49.304;12.840;2024-01-27T12:06:12;9.00;99.90
25046;DHT22;13044;49.304;12.840;2024-01-27T12:08:42;9.10;99.90
25046;DHT22;13044;49.304;12.840;2024-01-27T12:11:15;9.30;99.90
25046;DHT22;13044;49.304;12.840;2024-01-27T12:13:46;9.40;99.90
25046;DHT22;13044;49.304;12.840;2024-01-27T12:16:13;9.50;99.90
25046;DHT22;13044;49.304;12.840;2024-01-27T12:18:40;9.60;99.90
25046;DHT22;13044;49.304;12.840;2024-01-27T12:21:07;9.70;99.90
25046;DHT22;13044;49.304;12.840;2024-01-27T12:23:34;9.90;99.90
25046;DHT22;13044;49.304;12.840;2024-01-27T12:26:01;10.00;99.90
25046;DHT22;13044;49.304;12.840;2024-01-27T12:28:27;10.20;99.90
25046;DHT22;13044;49.304;12.840;2024-01-27T12:30:56;10.30;99.90
25046;DHT22;13044;49.304;12.840;2024-01-27T12:33:23;10.50;99.90
25046;DHT22;13044;49.304;12.840;2024-01-27T12:35:52;10.60;99.90
25046;DHT22;13044;49.304;12.840;2024-01-27T12:38:22;10.70;99.90
25046;DHT22;13044;49.304;12.840;2024-01-27T12:40:49;10.80;99.90
25046;DHT22;13044;49.304;12.840;2024-01-27T12:43:16;11.00;99.90
25046;DHT22;13044;49.304;12.840;2024-01-27T12:45:43;11.00;99.90
25046;DHT22;13044;49.304;12.840;2024-01-27T12:48:10;11.00;99.90
25046;DHT22;13044;49.304;12.840;2024-01-27T12:50:37;11.20;99.90
25046;DHT22;13044;49.304;12.840;2024-01-27T12:53:04;11.20;99.90
25046;DHT22;13044;49.304;12.840;2024-01-27T12:55:31;11.20;99.40
25046;DHT22;13044;49.304;12.840;2024-01-27T12:57:58;11.20;98.20
25046;DHT22;13044;49.304;12.840;2024-01-27T13:00:25;11.10;98.20
25046;DHT22;13044;49.304;12.840;2024-01-27T13:02:52;11.10;97.30
25046;DHT22;13044;49.304;12.840;2024-01-27T13:05:19;10.70;96.50
25046;DHT22;13044;49.304;12.840;2024-01-27T13:07:47;11.00;98.60
25046;DHT22;13044;49.304;12.840;2024-01-27T13:10:15;11.10;98.20
25046;DHT22;13044;49.304;12.840;2024-01-27T13:12:43;11.30;98.70
25046;DHT22;13044;49.304;12.840;2024-01-27T13:15:11;11.40;97.90
25046;DHT22;13044;49.304;12.840;2024-01-27T13:17:38;11.60;97.50
25046;DHT22;13044;49.304;12.840;2024-01-27T13:20:06;11.60;97.00
25046;DHT22;13044;49.304;12.840;2024-01-27T13:22:33;11.60;95.30
25046;DHT22;13044;49.304;12.840;2024-01-27T13:25:00;11.60;95.40
25046;DHT22;13044;49.304;12.840;2024-01-27T13:27:31;11.50;95.60
25046;DHT22;13044;49.304;12.840;2024-01-27T13:29:58;11.70;96.40
25046;DHT22;13044;49.304;12.840;2024-01-27T13:32:25;11.90;96.10
25046;DHT22;13044;49.304;12.840;2024-01-27T13:34:53;11.90;95.80
25046;DHT22;13044;49.304;12.840;2024-01-27T13:37:20;12.10;96.00
25046;DHT22;13044;49.304;12.840;2024-01-27T13:39:48;12.30;96.00
25046;DHT22;13044;49.304;12.840;2024-01-27T13:42:15;12.40;95.10
25046;DHT22;13044;49.304;12.840;2024-01-27T13:44:42;12.40;95.40
25046;DHT22;13044;49.304;12.840;2024-01-27T13:47:10;12.50;95.70
25046;DHT22;13044;49.304;12.840;2024-01-27T13:49:36;12.60;95.30
25046;DHT22;13044;49.304;12.840;2024-01-27T13:52:05;12.70;94.10
25046;DHT22;13044;49.304;12.840;2024-01-27T13:54:33;12.60;93.10
25046;DHT22;13044;49.304;12.840;2024-01-27T13:57:02;12.60;92.90
25046;DHT22;13044;49.304;12.840;2024-01-27T13:59:29;12.60;93.20
25046;DHT22;13044;49.304;12.840;2024-01-27T14:01:57;12.70;92.80
25046;DHT22;13044;49.304;12.840;2024-01-27T14:04:24;12.70;92.90
25046;DHT22;13044;49.304;12.840;2024-01-27T14:06:52;12.70;92.80
25046;DHT22;13044;49.304;12.840;2024-01-27T14:09:23;12.80;92.30
25046;DHT22;13044;49.304;12.840;2024-01-27T14:11:50;12.80;92.70
25046;DHT22;13044;49.304;12.840;2024-01-27T14:14:17;12.80;92.30
25046;DHT22;13044;49.304;12.840;2024-01-27T14:16:44;12.90;92.60
25046;DHT22;13044;49.304;12.840;2024-01-27T14:19:12;13.00;92.50
25046;DHT22;13044;49.304;12.840;2024-01-27T14:21:39;13.10;92.10
25046;DHT22;13044;49.304;12.840;2024-01-27T14:24:07;13.10;92.20
25046;DHT22;13044;49.304;12.840;2024-01-27T14:26:34;13.10;92.30
25046;DHT22;13044;49.304;12.840;2024-01-27T14:29:01;13.10;92.30
25046;DHT22;13044;49.304;12.840;2024-01-27T14:31:29;13.10;92.30
25046;DHT22;13044;49.304;12.840;2024-01-27T14:33:57;13.10;91.90
25046;DHT22;13044;49.304;12.840;2024-01-27T14:36:25;13.10;91.90
25046;DHT22;13044;49.304;12.840;2024-01-27T14:38:52;13.00;91.90
25046;DHT22;13044;49.304;12.840;2024-01-27T14:41:20;12.80;91.80
25046;DHT22;13044;49.304;12.840;2024-01-27T14:43:47;12.60;92.30
25046;DHT22;13044;49.304;12.840;2024-01-27T14:46:17;12.40;92.40
25046;DHT22;13044;49.304;12.840;2024-01-27T14:48:44;12.10;92.50
25046;DHT22;13044;49.304;12.840;2024-01-27T14:51:12;11.90;92.80
25046;DHT22;13044;49.304;12.840;2024-01-27T14:53:39;11.60;93.20
25046;DHT22;13044;49.304;12.840;2024-01-27T14:56:07;11.40;93.30
25046;DHT22;13044;49.304;12.840;2024-01-27T14:58:34;11.20;93.70
25046;DHT22;13044;49.304;12.840;2024-01-27T15:01:01;11.00;93.90
25046;DHT22;13044;49.304;12.840;2024-01-27T15:03:28;10.80;94.30
25046;DHT22;13044;49.304;12.840;2024-01-27T15:05:55;10.60;94.50
25046;DHT22;13044;49.304;12.840;2024-01-27T15:08:23;10.40;94.70
25046;DHT22;13044;49.304;12.840;2024-01-27T15:10:50;10.10;94.60
25046;DHT22;13044;49.304;12.840;2024-01-27T15:13:17;9.90;95.10
25046;DHT22;13044;49.304;12.840;2024-01-27T15:15:47;9.70;94.90
25046;DHT22;13044;49.304;12.840;2024-01-27T15:18:14;9.60;95.50
25046;DHT22;13044;49.304;12.840;2024-01-27T15:20:43;9.40;96.00
25046;DHT22;13044;49.304;12.840;2024-01-27T15:23:10;9.20;95.40
25046;DHT22;13044;49.304;12.840;2024-01-27T15:25:37;9.10;95.70
25046;DHT22;13044;49.304;12.840;2024-01-27T15:28:04;8.90;96.20
25046;DHT22;13044;49.304;12.840;2024-01-27T15:30:31;8.80;96.60
25046;DHT22;13044;49.304;12.840;2024-01-27T15:32:58;8.70;96.90